Rainier, OR (97048)

1:04 PM PST on February 13, 2016 (GMT -0800)
Neer City Hilltop | | Change Station
CLOSE
Current Station
Personal Weather Station
Location: Rainier, OR
Elevation: 1020 ft
Nearby Weather Stations

Elev 1020 ft 46.03 °N, 122.92 °W | Updated 31 seconds ago

Rain
Rain
44.1 °F
Feels Like 41 °F
N
4.9
Wind Variable Wind from SE
Gusts 7.4 mph

Today
High -- | Low -- °F
--% Chance of Precip.
Yesterday
High -- | Low -- °F
Precip. -- in
Pressure 30.26 in
Visibility 6.0 miles
Clouds Scattered Clouds 2200 ft
Mostly Cloudy 3400 ft
Overcast 4600 ft
Windchill 41 °F
Dew Point 32 °F
Humidity 61%
Rainfall 0.04 in
Snow Depth Not available.
7:18 AM 5:34 PM
Waxing Crescent, 34% visible
METAR KKLS 132055Z AUTO 15007KT 6SM SCT022 BKN034 OVC046 09/06 A3026 RMK AO1 57030
Pressure 30.26 in
Visibility 6.0 miles
Clouds Scattered Clouds 2200 ft
Mostly Cloudy 3400 ft
Overcast 4600 ft
Windchill 41 °F
Dew Point 32 °F
Humidity 61%
Rainfall 0.04 in
Snow Depth Not available.
7:18 AM 5:34 PM
Waxing Crescent, 34% visible
METAR KKLS 132055Z AUTO 15007KT 6SM SCT022 BKN034 OVC046 09/06 A3026 RMK AO1 57030

10-Day Weather Forecast

Almanac

Astronomy

Feb. 13, 2016 Rise Set
Actual Time
Civil Twilight
Nautical Twilight
Astronomical Twilight
Moon
Length of Visible Light
Length of Day
Tomorrow will be .
, % of the Moon is Illuminated

Today's Extremes

State Highs State Lows

Community

WunderPhotos

Upload Photos

1,892,667 photos uploaded!

WunderBlog® & News

Nearby

Air Quality

  Air Quality AQ Index Pollutant
Not available.

Snow Depth

Station Depth Elevation

Earthquake Activity

City Distance Mag. Time & Date
Minimum magnitude displayed is 2.5.

Coastal Water Temperatures

Place Temperature

Stations

Nearby Weather Stations

Station Location Temp. Windchill Dew Point Humidity Wind Precip. Elev Updated Type
                   

Watches & Warnings

There are currently no watches in effect.